Time,TemperatureF,DewpointF,PressureIn,WindDirection,WindDirectionDegrees,WindSpeedMPH,WindSpeedGustMPH,Humidity,HourlyPrecipIn,Conditions,Clouds,dailyrainin,SolarRadiationWatts/m^2,SoftwareType,DateUTC
2013-06-02 00:01:00,49.0,24.0,-100.00,North,10,3.0,5.0,37,0.00,,,0.00,1.000000,,2013-06-02 06:01:00,
2013-06-02 00:12:00,49.0,24.0,-100.00,North,10,3.0,5.0,37,0.00,,,0.00,1.000000,,2013-06-02 06:12:00,
2013-06-02 00:32:00,48.0,24.0,-100.00,North,8,3.0,4.0,38,0.00,,,0.00,0.000000,,2013-06-02 06:32:00,
2013-06-02 00:42:00,48.0,24.0,-100.00,North,8,3.0,4.0,38,0.00,,,0.00,0.000000,,2013-06-02 06:42:00,
2013-06-02 00:52:00,48.0,24.0,-100.00,North,8,3.0,4.0,38,0.00,,,0.00,0.000000,,2013-06-02 06:52:00,
2013-06-02 01:01:00,48.0,24.0,-100.00,North,8,3.0,4.0,38,0.00,,,0.00,0.000000,,2013-06-02 07:01:00,
2013-06-02 01:11:00,48.0,24.0,-100.00,North,8,3.0,4.0,38,0.00,,,0.00,0.000000,,2013-06-02 07:11:00,
2013-06-02 01:32:00,45.0,24.0,-100.00,WNW,296,2.0,4.0,44,0.00,,,0.00,0.000000,,2013-06-02 07:32:00,
2013-06-02 01:42:00,45.0,24.0,-100.00,WNW,296,2.0,4.0,44,0.00,,,0.00,0.000000,,2013-06-02 07:42:00,
2013-06-02 01:52:00,45.0,24.0,-100.00,WNW,296,2.0,4.0,44,0.00,,,0.00,0.000000,,2013-06-02 07:52:00,
2013-06-02 02:01:00,45.0,24.0,-100.00,WNW,296,2.0,4.0,44,0.00,,,0.00,0.000000,,2013-06-02 08:01:00,
2013-06-02 02:11:00,45.0,24.0,-100.00,WNW,296,2.0,4.0,44,0.00,,,0.00,0.000000,,2013-06-02 08:11:00,
2013-06-02 02:32:00,45.0,22.0,-100.00,ENE,73,2.0,5.0,40,0.00,,,0.00,0.000000,,2013-06-02 08:32:00,
2013-06-02 02:42:00,45.0,22.0,-100.00,ENE,73,2.0,5.0,40,0.00,,,0.00,0.000000,,2013-06-02 08:42:00,
2013-06-02 02:52:00,45.0,22.0,-100.00,ENE,73,2.0,5.0,40,0.00,,,0.00,0.000000,,2013-06-02 08:52:00,
2013-06-02 03:01:00,45.0,22.0,-100.00,ENE,73,2.0,5.0,40,0.00,,,0.00,0.000000,,2013-06-02 09:01:00,
2013-06-02 03:11:00,45.0,22.0,-100.00,ENE,73,2.0,5.0,40,0.00,,,0.00,0.000000,,2013-06-02 09:11:00,
2013-06-02 03:33:00,45.0,23.0,-100.00,NNW,335,1.0,4.0,41,0.00,,,0.00,0.000000,,2013-06-02 09:33:00,
2013-06-02 03:43:00,45.0,23.0,-100.00,NNW,335,1.0,4.0,41,0.00,,,0.00,0.000000,,2013-06-02 09:43:00,
2013-06-02 03:53:00,45.0,23.0,-100.00,NNW,335,1.0,4.0,41,0.00,,,0.00,0.000000,,2013-06-02 09:53:00,
2013-06-02 04:02:00,45.0,23.0,-100.00,NNW,335,1.0,4.0,41,0.00,,,0.00,0.000000,,2013-06-02 10:02:00,
2013-06-02 04:12:00,45.0,23.0,-100.00,NNW,335,1.0,4.0,41,0.00,,,0.00,0.000000,,2013-06-02 10:12:00,
2013-06-02 04:33:00,45.0,23.0,-100.00,NNE,30,3.0,4.0,41,0.00,,,0.00,0.000000,,2013-06-02 10:33:00,
2013-06-02 04:42:00,45.0,23.0,-100.00,NNE,30,3.0,4.0,41,0.00,,,0.00,0.000000,,2013-06-02 10:42:00,
2013-06-02 04:52:00,45.0,23.0,-100.00,NNE,30,3.0,4.0,41,0.00,,,0.00,0.000000,,2013-06-02 10:52:00,
2013-06-02 05:02:00,45.0,23.0,-100.00,NNE,30,3.0,4.0,41,0.00,,,0.00,0.000000,,2013-06-02 11:02:00,
2013-06-02 05:11:00,45.0,23.0,-100.00,NNE,30,3.0,4.0,41,0.00,,,0.00,0.000000,,2013-06-02 11:11:00,
2013-06-02 05:32:00,43.0,29.0,-100.00,West,272,3.0,7.0,58,0.00,,,0.00,0.000000,,2013-06-02 11:32:00,
2013-06-02 05:42:00,43.0,29.0,-100.00,West,272,3.0,7.0,58,0.00,,,0.00,0.000000,,2013-06-02 11:42:00,
2013-06-02 05:52:00,43.0,29.0,-100.00,West,272,3.0,7.0,58,0.00,,,0.00,0.000000,,2013-06-02 11:52:00,
2013-06-02 06:01:00,43.0,29.0,-100.00,West,272,3.0,7.0,58,0.00,,,0.00,0.000000,,2013-06-02 12:01:00,
2013-06-02 06:11:00,43.0,29.0,-100.00,West,272,3.0,7.0,58,0.00,,,0.00,0.000000,,2013-06-02 12:11:00,
2013-06-02 06:32:00,40.0,31.0,-100.00,ENE,76,4.0,11.0,70,0.00,,,0.00,0.000000,,2013-06-02 12:32:00,
2013-06-02 06:42:00,40.0,31.0,-100.00,ENE,76,4.0,11.0,70,0.00,,,0.00,0.000000,,2013-06-02 12:42:00,
2013-06-02 06:52:00,40.0,31.0,-100.00,ENE,76,4.0,11.0,70,0.00,,,0.00,0.000000,,2013-06-02 12:52:00,
2013-06-02 07:01:00,40.0,31.0,-100.00,ENE,76,4.0,11.0,70,0.00,,,0.00,0.000000,,2013-06-02 13:01:00,
2013-06-02 07:11:00,40.0,31.0,-100.00,ENE,76,4.0,11.0,70,0.00,,,0.00,0.000000,,2013-06-02 13:11:00,
2013-06-02 07:32:00,42.0,31.0,-100.00,NE,45,2.0,5.0,64,0.00,,,-99.99,6.000000,,2013-06-02 13:32:00,
2013-06-02 07:42:00,42.0,31.0,-100.00,NE,45,2.0,5.0,64,0.00,,,-99.99,6.000000,,2013-06-02 13:42:00,
2013-06-02 07:52:00,42.0,31.0,-100.00,NE,45,2.0,5.0,64,0.00,,,-99.99,6.000000,,2013-06-02 13:52:00,
2013-06-02 08:01:00,42.0,31.0,-100.00,NE,45,2.0,5.0,64,0.00,,,-99.99,6.000000,,2013-06-02 14:01:00,
2013-06-02 08:11:00,42.0,31.0,-100.00,NE,45,2.0,5.0,64,0.00,,,-99.99,6.000000,,2013-06-02 14:11:00,
2013-06-02 08:32:00,43.0,31.0,-100.00,ENE,77,5.0,9.0,62,0.00,,,0.00,63.000000,,2013-06-02 14:32:00,
2013-06-02 08:42:00,43.0,31.0,-100.00,ENE,77,5.0,9.0,62,0.00,,,0.00,63.000000,,2013-06-02 14:42:00,
2013-06-02 08:52:00,43.0,31.0,-100.00,ENE,77,5.0,9.0,62,0.00,,,0.00,63.000000,,2013-06-02 14:52:00,
2013-06-02 09:01:00,43.0,31.0,-100.00,ENE,77,5.0,9.0,62,0.00,,,0.00,63.000000,,2013-06-02 15:01:00,
2013-06-02 09:11:00,43.0,31.0,-100.00,ENE,77,5.0,9.0,62,0.00,,,0.00,63.000000,,2013-06-02 15:11:00,
2013-06-02 09:33:00,45.0,32.0,-100.00,East,84,4.0,9.0,61,0.00,,,0.00,138.000000,,2013-06-02 15:33:00,
2013-06-02 09:43:00,45.0,32.0,-100.00,East,84,4.0,9.0,61,0.00,,,0.00,138.000000,,2013-06-02 15:43:00,
2013-06-02 09:53:00,45.0,32.0,-100.00,East,84,4.0,9.0,61,0.00,,,0.00,138.000000,,2013-06-02 15:53:00,
2013-06-02 10:03:00,45.0,32.0,-100.00,East,84,4.0,9.0,61,0.00,,,0.00,138.000000,,2013-06-02 16:03:00,
2013-06-02 10:13:00,45.0,32.0,-100.00,East,84,4.0,9.0,61,0.00,,,0.00,138.000000,,2013-06-02 16:13:00,
2013-06-02 10:33:00,48.0,35.0,-100.00,SE,134,3.0,7.0,61,0.00,,,0.00,288.000000,,2013-06-02 16:33:00,
2013-06-02 10:42:00,48.0,35.0,-100.00,SE,134,3.0,7.0,61,0.00,,,0.00,288.000000,,2013-06-02 16:42:00,
2013-06-02 10:52:00,48.0,35.0,-100.00,SE,134,3.0,7.0,61,0.00,,,0.00,288.000000,,2013-06-02 16:52:00,
2013-06-02 11:02:00,48.0,35.0,-100.00,SE,134,3.0,7.0,61,0.00,,,0.00,288.000000,,2013-06-02 17:02:00,
2013-06-02 11:12:00,48.0,35.0,-100.00,SE,134,3.0,7.0,61,0.00,,,0.00,288.000000,,2013-06-02 17:12:00,
2013-06-02 11:32:00,46.0,36.0,-100.00,SSE,165,3.0,8.0,68,0.00,,,-99.99,211.000000,,2013-06-02 17:32:00,
2013-06-02 11:42:00,46.0,36.0,-100.00,SSE,165,3.0,8.0,68,0.00,,,-99.99,211.000000,,2013-06-02 17:42:00,
2013-06-02 11:52:00,46.0,36.0,-100.00,SSE,165,3.0,8.0,68,0.00,,,-99.99,211.000000,,2013-06-02 17:52:00,
2013-06-02 12:01:00,46.0,36.0,-100.00,SSE,165,3.0,8.0,68,0.00,,,-99.99,211.000000,,2013-06-02 18:01:00,
2013-06-02 12:11:00,46.0,36.0,-100.00,SSE,165,3.0,8.0,68,0.00,,,-99.99,211.000000,,2013-06-02 18:11:00,
2013-06-02 12:32:00,41.0,39.0,-100.00,NW,315,1.0,5.0,91,0.00,,,0.00,79.000000,,2013-06-02 18:32:00,
2013-06-02 12:42:00,41.0,39.0,-100.00,NW,315,1.0,5.0,91,0.00,,,0.00,79.000000,,2013-06-02 18:42:00,
2013-06-02 12:52:00,41.0,39.0,-100.00,NW,315,1.0,5.0,91,0.00,,,0.00,79.000000,,2013-06-02 18:52:00,
2013-06-02 13:01:00,41.0,39.0,-100.00,NW,315,1.0,5.0,91,0.00,,,0.00,79.000000,,2013-06-02 19:01:00,
2013-06-02 13:11:00,41.0,39.0,-100.00,NW,315,1.0,5.0,91,0.00,,,0.00,79.000000,,2013-06-02 19:11:00,
2013-06-02 13:32:00,39.0,37.0,-100.00,WSW,245,2.0,6.0,93,0.00,,,0.00,61.000000,,2013-06-02 19:32:00,
2013-06-02 13:42:00,39.0,37.0,-100.00,WSW,245,2.0,6.0,93,0.00,,,0.00,61.000000,,2013-06-02 19:42:00,
2013-06-02 13:52:00,39.0,37.0,-100.00,WSW,245,2.0,6.0,93,0.00,,,0.00,61.000000,,2013-06-02 19:52:00,
2013-06-02 14:02:00,39.0,37.0,-100.00,WSW,245,2.0,6.0,93,0.00,,,0.00,61.000000,,2013-06-02 20:02:00,
2013-06-02 14:11:00,39.0,37.0,-100.00,WSW,245,2.0,6.0,93,0.00,,,0.00,61.000000,,2013-06-02 20:11:00,
2013-06-02 14:32:00,38.0,37.0,-100.00,SE,131,3.0,7.0,96,0.00,,,0.00,68.000000,,2013-06-02 20:32:00,
2013-06-02 14:42:00,38.0,37.0,-100.00,SE,131,3.0,7.0,96,0.00,,,0.00,68.000000,,2013-06-02 20:42:00,
2013-06-02 14:52:00,38.0,37.0,-100.00,SE,131,3.0,7.0,96,0.00,,,0.00,68.000000,,2013-06-02 20:52:00,
2013-06-02 15:01:00,38.0,37.0,-100.00,SE,131,3.0,7.0,96,0.00,,,0.00,68.000000,,2013-06-02 21:01:00,
2013-06-02 15:11:00,38.0,37.0,-100.00,SE,131,3.0,7.0,96,0.00,,,0.00,68.000000,,2013-06-02 21:11:00,
2013-06-02 15:33:00,38.0,37.0,-100.00,East,89,5.0,9.0,97,0.00,,,0.00,114.000000,,2013-06-02 21:33:00,
2013-06-02 15:42:00,38.0,37.0,-100.00,East,89,5.0,9.0,97,0.00,,,0.00,114.000000,,2013-06-02 21:42:00,
2013-06-02 15:53:00,38.0,37.0,-100.00,East,89,5.0,9.0,97,0.00,,,0.00,114.000000,,2013-06-02 21:53:00,
2013-06-02 16:03:00,38.0,37.0,-100.00,East,89,5.0,9.0,97,0.00,,,0.00,114.000000,,2013-06-02 22:03:00,
2013-06-02 16:12:00,38.0,37.0,-100.00,East,89,5.0,9.0,97,0.00,,,0.00,114.000000,,2013-06-02 22:12:00,
2013-06-02 16:33:00,39.0,38.0,-100.00,ENE,77,4.0,10.0,96,0.00,,,0.00,176.000000,,2013-06-02 22:33:00,
2013-06-02 16:42:00,39.0,38.0,-100.00,ENE,77,4.0,10.0,96,0.00,,,0.00,176.000000,,2013-06-02 22:42:00,
2013-06-02 16:52:00,39.0,38.0,-100.00,ENE,77,4.0,10.0,96,0.00,,,0.00,176.000000,,2013-06-02 22:52:00,
2013-06-02 17:02:00,39.0,38.0,-100.00,ENE,77,4.0,10.0,96,0.00,,,0.00,176.000000,,2013-06-02 23:02:00,
2013-06-02 17:12:00,39.0,38.0,-100.00,ENE,77,4.0,10.0,96,0.00,,,0.00,176.000000,,2013-06-02 23:12:00,
2013-06-02 17:32:00,39.0,37.0,-100.00,SW,215,2.0,8.0,93,0.00,,,0.00,234.000000,,2013-06-02 23:32:00,
2013-06-02 17:42:00,39.0,37.0,-100.00,SW,215,2.0,8.0,93,0.00,,,0.00,234.000000,,2013-06-02 23:42:00,
2013-06-02 17:52:00,39.0,37.0,-100.00,SW,215,2.0,8.0,93,0.00,,,0.00,234.000000,,2013-06-02 23:52:00,
2013-06-02 18:01:00,39.0,37.0,-100.00,SW,215,2.0,8.0,93,0.00,,,0.00,234.000000,,2013-06-03 00:01:00,
2013-06-02 18:11:00,39.0,37.0,-100.00,SW,215,2.0,8.0,93,0.00,,,0.00,234.000000,,2013-06-03 00:11:00,
2013-06-02 19:32:00,39.0,38.0,-100.00,East,94,2.0,5.0,97,-99.99,,,-99.99,110.000000,,2013-06-03 01:32:00,
2013-06-02 19:42:00,39.0,38.0,-100.00,East,94,2.0,5.0,97,-99.99,,,-99.99,110.000000,,2013-06-03 01:42:00,
2013-06-02 19:52:00,39.0,38.0,-100.00,East,94,2.0,5.0,97,-99.99,,,-99.99,110.000000,,2013-06-03 01:52:00,
2013-06-02 20:02:00,39.0,38.0,-100.00,East,94,2.0,5.0,97,-99.99,,,-99.99,110.000000,,2013-06-03 02:02:00,
2013-06-02 20:12:00,39.0,38.0,-100.00,East,94,2.0,5.0,97,-99.99,,,-99.99,110.000000,,2013-06-03 02:12:00,
2013-06-02 20:32:00,38.0,37.0,-100.00,East,96,2.0,6.0,97,0.00,,,0.00,66.000000,,2013-06-03 02:32:00,
2013-06-02 20:42:00,38.0,37.0,-100.00,East,96,2.0,6.0,97,0.00,,,0.00,66.000000,,2013-06-03 02:42:00,
2013-06-02 20:52:00,38.0,37.0,-100.00,East,96,2.0,6.0,97,0.00,,,0.00,66.000000,,2013-06-03 02:52:00,
2013-06-02 21:02:00,38.0,37.0,-100.00,East,96,2.0,6.0,97,0.00,,,0.00,66.000000,,2013-06-03 03:02:00,
2013-06-02 21:12:00,38.0,37.0,-100.00,East,96,2.0,6.0,97,0.00,,,0.00,66.000000,,2013-06-03 03:12:00,
2013-06-02 21:33:00,37.0,36.0,-100.00,West,261,2.0,4.0,97,0.00,,,0.00,53.000000,,2013-06-03 03:33:00,
2013-06-02 21:43:00,37.0,36.0,-100.00,West,261,2.0,4.0,97,0.00,,,0.00,53.000000,,2013-06-03 03:43:00,
2013-06-02 21:53:00,37.0,36.0,-100.00,West,261,2.0,4.0,97,0.00,,,0.00,53.000000,,2013-06-03 03:53:00,
2013-06-02 22:02:00,37.0,36.0,-100.00,West,261,2.0,4.0,97,0.00,,,0.00,53.000000,,2013-06-03 04:02:00,
2013-06-02 22:12:00,37.0,36.0,-100.00,West,261,2.0,4.0,97,0.00,,,0.00,53.000000,,2013-06-03 04:12:00,
2013-06-02 22:33:00,35.0,34.0,-100.00,SSW,207,2.0,9.0,98,0.00,,,0.00,6.000000,,2013-06-03 04:33:00,
2013-06-02 22:42:00,35.0,34.0,-100.00,SSW,207,2.0,9.0,98,0.00,,,0.00,6.000000,,2013-06-03 04:42:00,
2013-06-02 22:53:00,35.0,34.0,-100.00,SSW,207,2.0,9.0,98,0.00,,,0.00,6.000000,,2013-06-03 04:53:00,
2013-06-02 23:02:00,35.0,34.0,-100.00,SSW,207,2.0,9.0,98,0.00,,,0.00,6.000000,,2013-06-03 05:02:00,
2013-06-02 23:12:00,35.0,34.0,-100.00,SSW,207,2.0,9.0,98,0.00,,,0.00,6.000000,,2013-06-03 05:12:00,
2013-06-02 23:32:00,34.0,34.0,-100.00,SW,226,0.0,4.0,98,0.00,,,-99.99,0.000000,,2013-06-03 05:32:00,
2013-06-02 23:43:00,34.0,34.0,-100.00,SW,226,0.0,4.0,98,0.00,,,-99.99,0.000000,,2013-06-03 05:43:00,
2013-06-02 23:52:00,34.0,34.0,-100.00,SW,226,0.0,4.0,98,0.00,,,-99.99,0.000000,,2013-06-03 05:52:00,